createdAt,value
2022-10-07T00:01:10.053Z,99198.00
2022-10-07T00:03:39.926Z,99202.00
2022-10-07T00:06:13.187Z,99198.00
2022-10-07T00:08:45.555Z,99201.00
2022-10-07T00:11:15.850Z,99199.00
2022-10-07T00:13:46.550Z,99201.00
2022-10-07T00:16:24.819Z,99202.00
2022-10-07T00:18:57.739Z,99203.00
2022-10-07T00:21:28.623Z,99200.00
2022-10-07T00:23:56.387Z,99199.00
2022-10-07T00:26:28.227Z,99189.00
2022-10-07T00:28:56.813Z,99187.00
2022-10-07T00:31:27.496Z,99192.00
2022-10-07T00:33:58.294Z,99189.00
2022-10-07T00:36:29.183Z,99181.00
2022-10-07T00:38:58.198Z,99183.00
2022-10-07T00:41:29.007Z,99178.00
2022-10-07T00:43:57.392Z,99170.00
2022-10-07T00:46:32.217Z,99174.00
2022-10-07T00:49:06.727Z,99171.00
2022-10-07T00:51:36.951Z,99172.00
2022-10-07T00:54:10.228Z,99174.00
2022-10-07T00:56:39.834Z,99166.00
2022-10-07T00:59:08.154Z,99161.00
2022-10-07T01:01:36.282Z,99165.00
2022-10-07T01:04:05.525Z,99168.00
2022-10-07T01:06:33.418Z,99161.00
2022-10-07T01:09:01.178Z,99164.00
2022-10-07T01:11:44.904Z,99163.00
2022-10-07T01:14:29.345Z,99156.00
2022-10-07T01:17:03.479Z,99151.00
2022-10-07T01:20:06.951Z,99146.00
2022-10-07T01:22:53.234Z,99143.00
2022-10-07T01:25:39.090Z,99144.00
2022-10-07T01:28:15.115Z,99139.00
2022-10-07T01:30:50.797Z,99134.00
2022-10-07T01:33:27.866Z,99133.00
2022-10-07T01:36:02.096Z,99128.00
2022-10-07T01:38:33.695Z,99124.00
2022-10-07T01:41:09.506Z,99125.00
2022-10-07T01:43:40.821Z,99106.00
2022-10-07T01:46:15.274Z,99104.00
2022-10-07T01:48:43.203Z,99103.00
2022-10-07T01:51:11.027Z,99101.00
2022-10-07T01:53:56.140Z,99097.00
2022-10-07T01:56:45.816Z,99091.00
2022-10-07T01:59:49.171Z,99088.00
2022-10-07T02:02:32.602Z,99086.00
2022-10-07T02:05:14.369Z,99082.00
2022-10-07T02:07:56.410Z,99083.00
2022-10-07T02:10:34.281Z,99083.00
2022-10-07T02:13:13.399Z,99085.00
2022-10-07T02:15:48.877Z,99091.00
2022-10-07T02:18:21.346Z,99084.00
2022-10-07T02:20:52.729Z,99079.00
2022-10-07T02:23:23.801Z,99085.00
2022-10-07T02:25:54.674Z,99084.00
2022-10-07T02:28:26.409Z,99082.00
2022-10-07T02:31:02.893Z,99069.00
2022-10-07T02:33:34.703Z,99076.00
2022-10-07T02:36:07.080Z,99076.00
2022-10-07T02:38:34.946Z,99069.00
2022-10-07T02:41:12.478Z,99072.00
2022-10-07T02:43:46.566Z,99070.00
2022-10-07T02:46:24.061Z,99078.00
2022-10-07T02:48:58.856Z,99071.00
2022-10-07T02:51:34.107Z,99067.00
2022-10-07T02:54:05.484Z,99063.00
2022-10-07T02:56:37.766Z,99069.00
2022-10-07T02:59:09.588Z,99065.00
2022-10-07T03:01:45.369Z,99059.00
2022-10-07T03:04:13.851Z,99050.00
2022-10-07T03:06:43.354Z,99047.00
2022-10-07T03:09:12.177Z,99054.00
2022-10-07T03:11:40.650Z,99047.00
2022-10-07T03:14:10.105Z,99053.00
2022-10-07T03:16:39.381Z,99033.00
2022-10-07T03:19:07.151Z,99034.00
2022-10-07T03:21:34.973Z,99028.00
2022-10-07T03:24:04.746Z,99033.00
2022-10-07T03:26:33.324Z,99034.00
2022-10-07T03:29:01.711Z,99036.00
2022-10-07T03:31:31.366Z,99020.00
2022-10-07T03:34:00.503Z,99019.00
2022-10-07T03:36:28.718Z,99022.00
2022-10-07T03:38:56.583Z,99024.00
2022-10-07T03:41:24.379Z,99021.00
2022-10-07T03:43:52.252Z,99023.00
2022-10-07T03:46:20.103Z,99032.00
2022-10-07T03:48:47.897Z,99017.00
2022-10-07T03:51:16.978Z,99026.00
2022-10-07T03:53:44.732Z,99023.00
2022-10-07T03:56:12.541Z,99017.00
2022-10-07T03:58:40.278Z,99017.00
2022-10-07T04:01:10.233Z,99020.00
2022-10-07T04:03:38.013Z,99029.00
2022-10-07T04:06:06.172Z,99027.00
2022-10-07T04:08:35.691Z,99010.00
2022-10-07T04:11:05.097Z,99007.00
2022-10-07T04:13:34.009Z,99010.00
2022-10-07T04:16:07.542Z,99006.00
2022-10-07T04:18:35.454Z,99001.00
2022-10-07T04:21:03.550Z,98999.00
2022-10-07T04:23:31.321Z,98994.00
2022-10-07T04:26:00.739Z,98990.00
2022-10-07T04:28:28.723Z,98988.00
2022-10-07T04:30:56.507Z,98987.00
2022-10-07T04:33:25.856Z,98987.00
2022-10-07T04:35:54.015Z,98976.00
2022-10-07T04:38:25.238Z,98969.00
2022-10-07T04:40:55.463Z,98960.00
2022-10-07T04:43:25.334Z,98976.00
2022-10-07T04:45:55.621Z,98970.00
2022-10-07T04:48:26.151Z,98977.00
2022-10-07T04:50:54.785Z,98971.00
2022-10-07T04:53:22.605Z,98960.00
2022-10-07T04:55:52.432Z,98969.00
2022-10-07T04:58:21.139Z,98980.00
2022-10-07T05:00:52.837Z,98971.00
2022-10-07T05:03:23.752Z,98966.00
2022-10-07T05:05:52.648Z,98963.00
2022-10-07T05:08:24.335Z,98966.00
2022-10-07T05:10:56.215Z,98965.00
2022-10-07T05:13:26.241Z,98957.00
2022-10-07T05:15:58.070Z,98966.00
2022-10-07T05:18:27.947Z,98956.00
2022-10-07T05:20:56.707Z,98952.00
2022-10-07T05:23:28.975Z,98950.00
2022-10-07T05:26:01.421Z,98952.00
2022-10-07T05:28:29.321Z,98948.00
2022-10-07T05:31:07.407Z,98944.00
2022-10-07T05:33:36.366Z,98933.00
2022-10-07T05:36:05.161Z,98935.00
2022-10-07T05:38:33.757Z,98933.00
2022-10-07T05:41:03.805Z,98927.00
2022-10-07T05:43:35.541Z,98931.00
2022-10-07T05:46:06.784Z,98932.00
2022-10-07T05:48:39.283Z,98922.00
2022-10-07T05:51:08.990Z,98925.00
2022-10-07T05:53:36.799Z,98917.00
2022-10-07T05:56:08.174Z,98923.00
2022-10-07T05:58:36.466Z,98930.00
2022-10-07T06:01:13.681Z,98925.00
2022-10-07T06:03:42.855Z,98927.00
2022-10-07T06:06:10.935Z,98927.00
2022-10-07T06:08:38.947Z,98929.00
2022-10-07T06:11:25.668Z,98924.00
2022-10-07T06:13:55.621Z,98921.00
2022-10-07T06:16:26.137Z,98921.00
2022-10-07T06:18:55.393Z,98918.00
2022-10-07T06:21:28.031Z,98912.00
2022-10-07T06:23:58.335Z,98918.00
2022-10-07T06:26:26.152Z,98915.00
2022-10-07T06:28:53.974Z,98916.00
2022-10-07T06:31:25.621Z,98914.00
2022-10-07T06:33:54.994Z,98921.00
2022-10-07T06:36:23.315Z,98916.00
2022-10-07T06:38:53.982Z,98922.00
2022-10-07T06:41:23.746Z,98916.00
2022-10-07T06:43:57.099Z,98911.00
2022-10-07T06:46:26.405Z,98912.00
2022-10-07T06:48:54.430Z,98913.00
2022-10-07T06:51:24.086Z,98908.00
2022-10-07T06:53:54.838Z,98912.00
2022-10-07T06:56:22.808Z,98925.00
2022-10-07T06:58:50.891Z,98912.00
2022-10-07T07:01:19.087Z,98918.00
2022-10-07T07:03:48.731Z,98922.00
2022-10-07T07:06:16.580Z,98919.00
2022-10-07T07:08:45.870Z,98922.00
2022-10-07T07:11:32.882Z,98918.00
2022-10-07T07:14:00.764Z,98914.00
2022-10-07T07:16:29.444Z,98915.00
2022-10-07T07:19:02.593Z,98925.00
2022-10-07T07:21:30.837Z,98920.00
2022-10-07T07:23:59.222Z,98926.00
2022-10-07T07:26:28.148Z,98923.00
2022-10-07T07:28:59.050Z,98920.00
2022-10-07T07:31:27.895Z,98916.00
2022-10-07T07:33:57.258Z,98921.00
2022-10-07T07:36:27.573Z,98921.00
2022-10-07T07:38:57.384Z,98925.00
2022-10-07T07:41:29.410Z,98918.00
2022-10-07T07:44:00.604Z,98921.00
2022-10-07T07:46:34.750Z,98923.00
2022-10-07T07:49:02.630Z,98908.00
2022-10-07T07:51:33.102Z,98914.00
2022-10-07T07:54:00.947Z,98916.00
2022-10-07T07:56:31.874Z,98912.00
2022-10-07T07:58:59.751Z,98911.00
2022-10-07T08:01:32.018Z,98916.00
2022-10-07T08:04:00.840Z,98911.00
2022-10-07T08:06:30.243Z,98910.00
2022-10-07T08:08:59.609Z,98898.00
2022-10-07T08:11:29.043Z,98903.00
2022-10-07T08:13:57.602Z,98902.00
2022-10-07T08:16:28.726Z,98900.00
2022-10-07T08:18:59.014Z,98900.00
2022-10-07T08:21:32.799Z,98892.00
2022-10-07T08:24:05.534Z,98900.00
2022-10-07T08:26:35.603Z,98907.00
2022-10-07T08:29:03.471Z,98903.00
2022-10-07T08:31:32.217Z,98909.00
2022-10-07T08:34:02.422Z,98906.00
2022-10-07T08:36:32.790Z,98906.00
2022-10-07T08:39:04.465Z,98906.00
2022-10-07T08:42:03.783Z,98895.00
2022-10-07T08:44:35.995Z,98899.00
2022-10-07T08:47:16.542Z,98906.00
2022-10-07T08:50:01.968Z,98899.00
2022-10-07T08:52:44.315Z,98894.00
2022-10-07T08:55:24.217Z,98891.00
2022-10-07T08:58:24.129Z,98878.00
2022-10-07T09:01:02.345Z,98882.00
2022-10-07T09:03:44.798Z,98876.00
2022-10-07T09:06:19.255Z,98881.00
2022-10-07T09:08:57.172Z,98869.00
2022-10-07T09:11:28.715Z,98869.00
2022-10-07T09:14:05.622Z,98867.00
2022-10-07T09:16:38.990Z,98860.00
2022-10-07T09:19:17.983Z,98859.00
2022-10-07T09:21:49.956Z,98860.00
2022-10-07T09:24:23.141Z,98850.00
2022-10-07T09:26:55.347Z,98856.00
2022-10-07T09:29:27.466Z,98849.00
2022-10-07T09:31:56.458Z,98844.00
2022-10-07T09:34:27.409Z,98847.00
2022-10-07T09:37:17.191Z,98839.00
2022-10-07T09:39:47.026Z,98845.00
2022-10-07T09:42:30.681Z,98837.00
2022-10-07T09:45:02.687Z,98840.00
2022-10-07T09:47:37.532Z,98839.00
2022-10-07T09:50:05.962Z,98838.00
2022-10-07T09:52:34.193Z,98835.00
2022-10-07T09:55:36.852Z,98833.00
2022-10-07T09:58:17.287Z,98835.00
2022-10-07T10:00:47.538Z,98829.00
2022-10-07T10:03:16.732Z,98827.00
2022-10-07T10:05:57.487Z,98829.00
2022-10-07T10:08:29.554Z,98826.00
2022-10-07T10:11:00.146Z,98822.00
2022-10-07T10:13:35.651Z,98821.00
2022-10-07T10:16:07.143Z,98826.00
2022-10-07T10:18:39.346Z,98821.00
2022-10-07T10:21:27.088Z,98827.00
2022-10-07T10:23:59.046Z,98818.00
2022-10-07T10:26:53.925Z,98816.00
2022-10-07T10:29:41.957Z,98818.00
2022-10-07T10:32:45.531Z,98820.00
2022-10-07T10:35:21.010Z,98819.00
2022-10-07T10:38:14.101Z,98811.00
2022-10-07T10:40:46.842Z,98803.00
2022-10-07T10:43:29.299Z,98798.00
2022-10-07T10:46:25.680Z,98794.00
2022-10-07T10:49:03.506Z,98782.00
2022-10-07T10:51:55.707Z,98785.00
2022-10-07T10:54:40.037Z,98785.00
2022-10-07T10:57:23.141Z,98778.00
2022-10-07T11:00:06.922Z,98774.00
2022-10-07T11:03:00.605Z,98770.00
2022-10-07T11:05:35.039Z,98774.00
2022-10-07T11:08:12.656Z,98768.00
2022-10-07T11:10:48.312Z,98765.00
2022-10-07T11:13:31.564Z,98764.00
2022-10-07T11:16:08.507Z,98758.00
2022-10-07T11:18:45.749Z,98753.00
2022-10-07T11:21:21.375Z,98750.00
2022-10-07T11:24:02.089Z,98747.00
2022-10-07T11:26:38.903Z,98736.00
2022-10-07T11:29:21.114Z,98730.00
2022-10-07T11:31:58.726Z,98733.00
2022-10-07T11:34:39.466Z,98732.00
2022-10-07T11:37:16.922Z,98737.00
2022-10-07T11:39:44.751Z,98735.00
2022-10-07T11:42:18.216Z,98726.00
2022-10-07T11:44:57.228Z,98722.00
2022-10-07T11:47:31.568Z,98709.00
2022-10-07T11:50:10.672Z,98709.00
2022-10-07T11:52:45.488Z,98702.00
2022-10-07T11:55:24.315Z,98699.00
2022-10-07T11:57:57.449Z,98696.00
2022-10-07T12:00:30.016Z,98691.00
2022-10-07T12:03:08.886Z,98684.00
2022-10-07T12:06:12.222Z,98671.00
2022-10-07T12:08:42.069Z,98676.00
2022-10-07T12:11:47.889Z,98676.00
2022-10-07T12:14:41.146Z,98675.00
2022-10-07T12:17:28.286Z,98659.00
2022-10-07T12:20:45.233Z,98656.00
2022-10-07T12:23:45.509Z,98653.00
2022-10-07T12:26:53.073Z,98646.00
2022-10-07T12:29:50.233Z,98651.00
2022-10-07T12:33:00.855Z,98639.00
2022-10-07T12:35:54.004Z,98637.00
2022-10-07T12:38:26.275Z,98633.00
2022-10-07T12:41:24.923Z,98632.00
2022-10-07T12:44:05.327Z,98628.00
2022-10-07T12:46:42.611Z,98617.00
2022-10-07T12:49:22.041Z,98617.00
2022-10-07T12:51:54.076Z,98608.00
2022-10-07T12:54:32.020Z,98602.00
2022-10-07T12:57:03.597Z,98601.00
2022-10-07T12:59:49.034Z,98596.00
2022-10-07T13:03:10.310Z,98598.00
2022-10-07T13:06:07.568Z,98601.00
2022-10-07T13:09:22.251Z,98594.00
2022-10-07T13:12:16.263Z,98588.00
2022-10-07T13:15:03.212Z,98588.00
2022-10-07T13:17:50.679Z,98571.00
2022-10-07T13:20:36.194Z,98572.00
2022-10-07T13:23:14.228Z,98574.00
2022-10-07T13:25:50.455Z,98566.00
2022-10-07T13:28:23.596Z,98560.00
2022-10-07T13:30:53.795Z,98555.00
2022-10-07T13:33:26.493Z,98555.00
2022-10-07T13:36:09.361Z,98557.00
2022-10-07T13:38:37.160Z,98547.00
2022-10-07T13:41:10.757Z,98548.00
2022-10-07T13:43:40.268Z,98546.00
2022-10-07T13:46:10.694Z,98535.00
2022-10-07T13:48:45.573Z,98529.00
2022-10-07T13:51:25.435Z,98526.00
2022-10-07T13:53:58.230Z,98522.00
2022-10-07T13:56:30.866Z,98521.00
2022-10-07T13:59:01.571Z,98506.00
2022-10-07T14:01:33.371Z,98505.00
2022-10-07T14:04:12.521Z,98511.00
2022-10-07T14:06:51.196Z,98502.00
2022-10-07T14:09:24.721Z,98502.00
2022-10-07T14:11:58.036Z,98503.00
2022-10-07T14:14:34.431Z,98499.00
2022-10-07T14:17:10.874Z,98493.00
2022-10-07T14:19:40.629Z,98498.00
2022-10-07T14:22:20.188Z,98488.00
2022-10-07T14:24:58.269Z,98490.00
2022-10-07T14:27:54.076Z,98482.00
2022-10-07T14:30:55.858Z,98485.00
2022-10-07T14:33:58.974Z,98485.00
2022-10-07T14:36:27.474Z,98481.00
2022-10-07T14:38:58.216Z,98474.00
2022-10-07T14:41:29.914Z,98472.00
2022-10-07T14:43:59.977Z,98469.00
2022-10-07T14:46:29.716Z,98460.00
2022-10-07T14:48:57.658Z,98453.00
2022-10-07T14:51:28.810Z,98452.00
2022-10-07T14:54:02.755Z,98445.00
2022-10-07T14:56:33.529Z,98445.00
2022-10-07T14:59:01.731Z,98442.00
2022-10-07T15:01:30.986Z,98440.00
2022-10-07T15:03:59.350Z,98436.00
2022-10-07T15:06:30.348Z,98433.00
2022-10-07T15:08:58.143Z,98437.00
2022-10-07T15:11:25.925Z,98430.00
2022-10-07T15:13:53.997Z,98422.00
2022-10-07T15:16:24.797Z,98415.00
2022-10-07T15:18:55.468Z,98422.00
2022-10-07T15:21:23.986Z,98417.00
2022-10-07T15:23:53.693Z,98420.00
2022-10-07T15:26:24.340Z,98411.00
2022-10-07T15:28:54.163Z,98410.00
2022-10-07T15:31:23.296Z,98411.00
2022-10-07T15:33:51.799Z,98407.00
2022-10-07T15:36:20.926Z,98409.00
2022-10-07T15:38:49.319Z,98405.00
2022-10-07T15:41:32.578Z,98405.00
2022-10-07T15:44:04.350Z,98396.00
2022-10-07T15:46:32.675Z,98395.00
2022-10-07T15:49:00.927Z,98397.00
2022-10-07T15:51:31.582Z,98395.00
2022-10-07T15:53:59.805Z,98384.00
2022-10-07T15:56:27.566Z,98385.00
2022-10-07T15:58:55.346Z,98386.00
2022-10-07T16:01:23.310Z,98388.00
2022-10-07T16:03:51.131Z,98384.00
2022-10-07T16:06:22.618Z,98377.00
2022-10-07T16:08:55.705Z,98377.00
2022-10-07T16:11:23.933Z,98368.00
2022-10-07T16:13:52.744Z,98369.00
2022-10-07T16:16:25.910Z,98373.00
2022-10-07T16:18:57.487Z,98373.00
2022-10-07T16:21:29.182Z,98372.00
2022-10-07T16:24:04.325Z,98373.00
2022-10-07T16:26:34.400Z,98367.00
2022-10-07T16:29:21.669Z,98367.00
2022-10-07T16:31:54.584Z,98366.00
2022-10-07T16:34:25.326Z,98364.00
2022-10-07T16:36:53.333Z,98370.00
2022-10-07T16:39:22.803Z,98366.00
2022-10-07T16:41:52.451Z,98362.00
2022-10-07T16:44:21.408Z,98365.00
2022-10-07T16:46:49.727Z,98363.00
2022-10-07T16:49:19.170Z,98353.00
2022-10-07T16:51:47.158Z,98355.00
2022-10-07T16:54:17.441Z,98362.00
2022-10-07T16:56:49.929Z,98367.00
2022-10-07T16:59:23.250Z,98366.00
2022-10-07T17:01:54.674Z,98367.00
2022-10-07T17:04:22.852Z,98367.00
2022-10-07T17:06:50.631Z,98360.00
2022-10-07T17:09:18.763Z,98363.00
2022-10-07T17:11:48.062Z,98368.00
2022-10-07T17:14:19.546Z,98373.00
2022-10-07T17:16:50.699Z,98372.00
2022-10-07T17:19:21.003Z,98374.00
2022-10-07T17:21:50.817Z,98374.00
2022-10-07T17:24:21.804Z,98378.00
2022-10-07T17:26:52.421Z,98371.00
2022-10-07T17:29:23.348Z,98371.00
2022-10-07T17:31:51.223Z,98378.00
2022-10-07T17:34:21.692Z,98375.00
2022-10-07T17:36:50.658Z,98368.00
2022-10-07T17:39:19.327Z,98367.00
2022-10-07T17:41:47.846Z,98374.00
2022-10-07T17:44:17.090Z,98369.00
2022-10-07T17:46:45.339Z,98371.00
2022-10-07T17:49:14.176Z,98369.00
2022-10-07T17:51:44.009Z,98371.00
2022-10-07T17:54:14.570Z,98370.00
2022-10-07T17:56:47.549Z,98368.00
2022-10-07T17:59:17.390Z,98365.00
2022-10-07T18:01:45.541Z,98371.00
2022-10-07T18:04:22.534Z,98366.00
2022-10-07T18:06:51.576Z,98372.00
2022-10-07T18:09:19.543Z,98369.00
2022-10-07T18:12:05.107Z,98376.00
2022-10-07T18:14:54.093Z,98375.00
2022-10-07T18:17:22.735Z,98370.00
2022-10-07T18:19:50.594Z,98364.00
2022-10-07T18:22:19.272Z,98369.00
2022-10-07T18:24:47.062Z,98366.00
2022-10-07T18:27:15.164Z,98369.00
2022-10-07T18:29:44.308Z,98376.00
2022-10-07T18:32:12.044Z,98370.00
2022-10-07T18:34:39.778Z,98381.00
2022-10-07T18:37:07.515Z,98380.00
2022-10-07T18:39:35.239Z,98371.00
2022-10-07T18:42:04.409Z,98368.00
2022-10-07T18:44:32.461Z,98370.00
2022-10-07T18:47:01.591Z,98369.00
2022-10-07T18:49:29.306Z,98361.00
2022-10-07T18:51:57.105Z,98362.00
2022-10-07T18:54:24.941Z,98360.00
2022-10-07T18:56:53.121Z,98360.00
2022-10-07T18:59:21.579Z,98356.00
2022-10-07T19:01:50.906Z,98360.00
2022-10-07T19:04:20.935Z,98355.00
2022-10-07T19:06:49.128Z,98363.00
2022-10-07T19:09:20.112Z,98359.00
2022-10-07T19:11:48.318Z,98360.00
2022-10-07T19:14:16.210Z,98358.00
2022-10-07T19:16:48.898Z,98357.00
2022-10-07T19:19:20.944Z,98359.00
2022-10-07T19:21:52.920Z,98362.00
2022-10-07T19:24:42.003Z,98370.00
2022-10-07T19:27:09.924Z,98369.00
2022-10-07T19:29:37.734Z,98360.00
2022-10-07T19:32:08.583Z,98374.00
2022-10-07T19:34:38.330Z,98372.00
2022-10-07T19:37:06.147Z,98370.00
2022-10-07T19:39:34.167Z,98371.00
2022-10-07T19:42:01.965Z,98378.00
2022-10-07T19:44:29.749Z,98369.00
2022-10-07T19:46:58.070Z,98379.00
2022-10-07T19:49:26.130Z,98372.00
2022-10-07T19:51:55.257Z,98379.00
2022-10-07T19:54:23.334Z,98369.00
2022-10-07T19:56:51.114Z,98368.00
2022-10-07T19:59:18.835Z,98366.00
2022-10-07T20:01:47.577Z,98358.00
2022-10-07T20:04:18.538Z,98360.00
2022-10-07T20:06:46.476Z,98357.00
2022-10-07T20:09:18.823Z,98356.00
2022-10-07T20:11:47.689Z,98353.00
2022-10-07T20:14:16.096Z,98354.00
2022-10-07T20:16:44.091Z,98354.00
2022-10-07T20:19:15.782Z,98357.00
2022-10-07T20:21:43.880Z,98364.00
2022-10-07T20:24:16.317Z,98364.00
2022-10-07T20:26:45.176Z,98362.00
2022-10-07T20:29:15.271Z,98362.00
2022-10-07T20:31:44.128Z,98356.00
2022-10-07T20:34:15.889Z,98356.00
2022-10-07T20:36:44.515Z,98350.00
2022-10-07T20:39:36.053Z,98349.00
2022-10-07T20:42:25.745Z,98350.00
2022-10-07T20:44:54.377Z,98346.00
2022-10-07T20:47:24.587Z,98351.00
2022-10-07T20:49:52.461Z,98353.00
2022-10-07T20:52:22.565Z,98342.00
2022-10-07T20:54:53.018Z,98334.00
2022-10-07T20:57:24.782Z,98332.00
2022-10-07T20:59:52.744Z,98327.00
2022-10-07T21:02:23.816Z,98338.00
2022-10-07T21:04:51.949Z,98323.00
2022-10-07T21:07:20.879Z,98323.00
2022-10-07T21:09:49.399Z,98316.00
2022-10-07T21:12:19.370Z,98321.00
2022-10-07T21:14:48.450Z,98322.00
2022-10-07T21:17:17.038Z,98325.00
2022-10-07T21:19:44.955Z,98320.00
2022-10-07T21:22:12.842Z,98319.00
2022-10-07T21:24:40.733Z,98316.00
2022-10-07T21:27:09.438Z,98307.00
2022-10-07T21:29:41.021Z,98316.00
2022-10-07T21:32:09.599Z,98316.00
2022-10-07T21:34:37.537Z,98313.00
2022-10-07T21:37:05.674Z,98316.00
2022-10-07T21:39:33.703Z,98308.00
2022-10-07T21:42:01.836Z,98313.00
2022-10-07T21:44:30.118Z,98297.00
2022-10-07T21:46:59.885Z,98301.00
2022-10-07T21:49:27.727Z,98299.00
2022-10-07T21:51:55.719Z,98294.00
2022-10-07T21:54:23.545Z,98296.00
2022-10-07T21:56:51.300Z,98297.00
2022-10-07T21:59:19.087Z,98296.00
2022-10-07T22:01:46.887Z,98296.00
2022-10-07T22:04:19.133Z,98296.00
2022-10-07T22:07:04.904Z,98288.00
2022-10-07T22:09:33.377Z,98292.00
2022-10-07T22:12:01.300Z,98291.00
2022-10-07T22:14:29.086Z,98286.00
2022-10-07T22:16:56.984Z,98294.00
2022-10-07T22:19:26.264Z,98296.00
2022-10-07T22:21:54.023Z,98290.00
2022-10-07T22:24:21.911Z,98286.00
2022-10-07T22:26:51.335Z,98281.00
2022-10-07T22:29:21.650Z,98273.00
2022-10-07T22:31:49.630Z,98272.00
2022-10-07T22:34:35.391Z,98271.00
2022-10-07T22:37:05.327Z,98281.00
2022-10-07T22:39:33.274Z,98278.00
2022-10-07T22:42:02.838Z,98273.00
2022-10-07T22:44:31.569Z,98258.00
2022-10-07T22:47:02.175Z,98258.00
2022-10-07T22:49:30.602Z,98260.00
2022-10-07T22:51:59.834Z,98268.00
2022-10-07T22:54:30.035Z,98265.00
2022-10-07T22:56:58.278Z,98261.00
2022-10-07T22:59:26.067Z,98262.00
2022-10-07T23:01:53.983Z,98264.00
2022-10-07T23:04:21.802Z,98265.00
2022-10-07T23:06:49.604Z,98251.00
2022-10-07T23:09:17.439Z,98253.00
2022-10-07T23:11:46.731Z,98254.00
2022-10-07T23:14:14.506Z,98250.00
2022-10-07T23:16:42.333Z,98255.00
2022-10-07T23:19:10.620Z,98256.00
2022-10-07T23:21:38.739Z,98250.00
2022-10-07T23:24:08.306Z,98250.00
2022-10-07T23:26:38.587Z,98241.00
2022-10-07T23:29:08.585Z,98242.00
2022-10-07T23:31:36.651Z,98245.00
2022-10-07T23:34:06.350Z,98244.00
2022-10-07T23:36:34.735Z,98244.00
2022-10-07T23:39:02.758Z,98242.00
2022-10-07T23:41:32.543Z,98234.00
2022-10-07T23:44:03.253Z,98235.00
2022-10-07T23:46:36.262Z,98239.00
2022-10-07T23:49:05.139Z,98236.00
2022-10-07T23:51:34.110Z,98230.00
2022-10-07T23:54:04.525Z,98229.00
2022-10-07T23:56:33.106Z,98232.00
2022-10-07T23:59:01.725Z,98224.00
